createdAt,value
2018-05-06T00:00:38.715Z,27.36
2018-05-06T00:01:38.683Z,27.33
2018-05-06T00:02:38.706Z,27.31
2018-05-06T00:03:38.696Z,27.30
2018-05-06T00:04:38.726Z,27.28
2018-05-06T00:05:38.600Z,27.31
2018-05-06T00:06:38.549Z,27.24
2018-05-06T00:07:38.550Z,27.28
2018-05-06T00:08:38.537Z,27.21
2018-05-06T00:09:38.497Z,27.19
2018-05-06T00:10:38.813Z,27.19
2018-05-06T00:11:38.719Z,27.12
2018-05-06T00:12:38.444Z,27.18
2018-05-06T00:13:38.388Z,27.12
2018-05-06T00:14:38.368Z,27.11
2018-05-06T00:15:38.343Z,27.06
2018-05-06T00:16:40.141Z,27.15
2018-05-06T00:17:38.560Z,27.08
2018-05-06T00:18:39.245Z,27.08
2018-05-06T00:19:38.270Z,27.06
2018-05-06T00:20:38.819Z,27.11
2018-05-06T00:21:38.816Z,27.12
2018-05-06T00:22:39.932Z,27.08
2018-05-06T00:23:38.941Z,27.01
2018-05-06T00:24:38.878Z,26.99
2018-05-06T00:25:38.877Z,27.08
2018-05-06T00:26:38.421Z,27.06
2018-05-06T00:27:38.500Z,27.00
2018-05-06T00:28:39.824Z,26.93
2018-05-06T00:29:38.741Z,27.05
2018-05-06T00:30:38.245Z,27.08
2018-05-06T00:31:38.121Z,27.08
2018-05-06T00:32:37.986Z,26.93
2018-05-06T00:33:38.434Z,27.01
2018-05-06T00:34:39.706Z,26.93
2018-05-06T00:35:38.395Z,27.11
2018-05-06T00:36:38.584Z,27.08
2018-05-06T00:37:38.405Z,26.99
2018-05-06T00:38:38.699Z,26.97
2018-05-06T00:39:37.754Z,26.97
2018-05-06T00:40:37.841Z,26.97
2018-05-06T00:41:37.702Z,27.01
2018-05-06T00:42:37.683Z,26.99
2018-05-06T00:43:37.629Z,26.97
2018-05-06T00:44:37.625Z,26.96
2018-05-06T00:45:37.587Z,27.04
2018-05-06T00:46:37.665Z,26.96
2018-05-06T00:47:37.540Z,26.99
2018-05-06T00:48:37.528Z,26.96
2018-05-06T00:49:37.497Z,27.00
2018-05-06T00:50:37.478Z,26.94
2018-05-06T00:51:37.462Z,26.90
2018-05-06T00:52:37.607Z,26.94
2018-05-06T00:53:37.409Z,26.97
2018-05-06T00:54:37.382Z,26.97
2018-05-06T00:55:37.366Z,26.96
2018-05-06T00:56:37.308Z,26.97
2018-05-06T00:57:37.285Z,26.91
2018-05-06T00:58:37.429Z,26.94
2018-05-06T00:59:37.248Z,26.82
2018-05-06T01:00:37.206Z,26.91
2018-05-06T01:01:37.185Z,26.84
2018-05-06T01:02:37.171Z,26.81
2018-05-06T01:03:37.297Z,26.79
2018-05-06T01:04:37.121Z,26.90
2018-05-06T01:05:37.080Z,26.76
2018-05-06T01:06:37.092Z,26.74
2018-05-06T01:07:37.089Z,26.81
2018-05-06T01:08:37.679Z,26.79
2018-05-06T01:09:36.987Z,26.76
2018-05-06T01:10:36.967Z,26.75
2018-05-06T01:11:36.942Z,26.79
2018-05-06T01:12:36.928Z,26.90
2018-05-06T01:13:36.978Z,26.89
2018-05-06T01:14:36.866Z,26.84
2018-05-06T01:15:36.842Z,26.86
2018-05-06T01:16:36.813Z,26.78
2018-05-06T01:17:36.799Z,26.81
2018-05-06T01:18:36.818Z,26.89
2018-05-06T01:19:36.881Z,26.86
2018-05-06T01:20:36.716Z,26.94
2018-05-06T01:21:36.695Z,26.90
2018-05-06T01:22:36.852Z,26.94
2018-05-06T01:23:36.740Z,26.93
2018-05-06T01:24:36.709Z,26.91
2018-05-06T01:25:36.585Z,26.96
2018-05-06T01:26:36.717Z,26.96
2018-05-06T01:27:36.555Z,26.94
2018-05-06T01:28:36.523Z,26.97
2018-05-06T01:29:36.484Z,27.05
2018-05-06T01:30:36.557Z,27.00
2018-05-06T01:31:36.435Z,27.00
2018-05-06T01:32:36.392Z,27.01
2018-05-06T01:33:36.378Z,26.97
2018-05-06T01:34:36.364Z,26.94
2018-05-06T01:35:36.355Z,26.93
2018-05-06T01:36:36.351Z,26.93
2018-05-06T01:37:36.284Z,26.89
2018-05-06T01:38:36.248Z,26.89
2018-05-06T01:39:36.221Z,26.94
2018-05-06T01:40:36.756Z,26.93
2018-05-06T01:41:36.323Z,26.87
2018-05-06T01:42:36.162Z,26.91
2018-05-06T01:43:36.141Z,26.90
2018-05-06T01:44:36.176Z,26.94
2018-05-06T01:45:36.102Z,26.91
2018-05-06T01:46:36.149Z,26.91
2018-05-06T01:47:36.127Z,26.82
2018-05-06T01:48:36.010Z,26.76
2018-05-06T01:49:36.700Z,26.79
2018-05-06T01:50:35.962Z,26.84
2018-05-06T01:51:35.974Z,26.76
2018-05-06T01:52:35.973Z,26.75
2018-05-06T01:53:35.866Z,26.79
2018-05-06T01:54:35.878Z,26.76
2018-05-06T01:55:35.812Z,26.72
2018-05-06T01:56:35.801Z,26.64
2018-05-06T01:57:35.903Z,26.68
2018-05-06T01:58:35.899Z,26.71
2018-05-06T01:59:35.718Z,26.71
2018-05-06T02:00:35.719Z,26.69
2018-05-06T02:01:35.741Z,26.61
2018-05-06T02:02:35.639Z,26.69
2018-05-06T02:03:35.724Z,26.63
2018-05-06T02:04:35.627Z,26.63
2018-05-06T02:05:35.595Z,26.61
2018-05-06T02:06:35.554Z,26.56
2018-05-06T02:07:35.517Z,26.63
2018-05-06T02:08:35.485Z,26.64
2018-05-06T02:09:35.569Z,26.64
2018-05-06T02:10:35.467Z,26.59
2018-05-06T02:11:35.442Z,26.59
2018-05-06T02:12:35.391Z,26.60
2018-05-06T02:13:35.366Z,26.53
2018-05-06T02:14:35.340Z,26.59
2018-05-06T02:15:35.418Z,26.59
2018-05-06T02:16:35.288Z,26.64
2018-05-06T02:17:35.263Z,26.61
2018-05-06T02:18:35.246Z,26.56
2018-05-06T02:19:35.208Z,26.60
2018-05-06T02:20:35.326Z,26.60
2018-05-06T02:21:35.228Z,26.63
2018-05-06T02:22:35.127Z,26.67
2018-05-06T02:23:35.099Z,26.68
2018-05-06T02:24:35.097Z,26.63
2018-05-06T02:25:35.098Z,26.74
2018-05-06T02:26:35.033Z,26.71
2018-05-06T02:27:34.995Z,26.68
2018-05-06T02:28:34.997Z,26.74
2018-05-06T02:29:34.961Z,26.74
2018-05-06T02:30:34.916Z,26.75
2018-05-06T02:31:35.001Z,26.79
2018-05-06T02:32:34.866Z,26.84
2018-05-06T02:33:34.852Z,26.74
2018-05-06T02:34:34.816Z,26.79
2018-05-06T02:35:35.221Z,26.82
2018-05-06T02:36:34.849Z,26.72
2018-05-06T02:37:34.749Z,26.69
2018-05-06T02:38:34.722Z,26.74
2018-05-06T02:39:34.707Z,26.90
2018-05-06T02:40:34.755Z,26.76
2018-05-06T02:41:34.776Z,26.78
2018-05-06T02:42:34.627Z,26.82
2018-05-06T02:43:34.597Z,26.74
2018-05-06T02:44:34.615Z,26.76
2018-05-06T02:45:34.529Z,26.81
2018-05-06T02:46:34.634Z,26.74
2018-05-06T02:47:34.505Z,26.76
2018-05-06T02:48:34.471Z,26.69
2018-05-06T02:49:34.457Z,26.68
2018-05-06T02:50:34.416Z,26.71
2018-05-06T02:51:34.366Z,26.68
2018-05-06T02:52:34.458Z,26.74
2018-05-06T02:53:34.903Z,26.71
2018-05-06T02:54:34.333Z,26.61
2018-05-06T02:55:34.324Z,26.69
2018-05-06T02:56:34.459Z,26.63
2018-05-06T02:57:34.351Z,26.74
2018-05-06T02:58:34.269Z,26.69
2018-05-06T02:59:34.203Z,26.72
2018-05-06T03:00:35.233Z,26.68
2018-05-06T03:01:34.171Z,26.71
2018-05-06T03:02:34.199Z,26.81
2018-05-06T03:03:34.186Z,26.68
2018-05-06T03:04:34.627Z,26.72
2018-05-06T03:05:34.027Z,26.74
2018-05-06T03:06:34.068Z,26.74
2018-05-06T03:07:33.994Z,26.71
2018-05-06T03:08:34.044Z,26.72
2018-05-06T03:09:34.025Z,26.71
2018-05-06T03:10:33.911Z,26.68
2018-05-06T03:11:34.202Z,26.63
2018-05-06T03:12:33.922Z,26.68
2018-05-06T03:13:33.830Z,26.72
2018-05-06T03:14:33.878Z,26.72
2018-05-06T03:15:33.771Z,26.68
2018-05-06T03:16:33.965Z,26.59
2018-05-06T03:17:33.744Z,26.56
2018-05-06T03:18:33.692Z,26.64
2018-05-06T03:19:33.767Z,26.61
2018-05-06T03:20:33.761Z,26.54
2018-05-06T03:21:33.698Z,26.61
2018-05-06T03:22:33.719Z,26.56
2018-05-06T03:23:33.746Z,26.53
2018-05-06T03:24:34.541Z,26.52
2018-05-06T03:25:33.524Z,26.54
2018-05-06T03:26:34.106Z,26.54
2018-05-06T03:27:34.020Z,26.53
2018-05-06T03:28:33.446Z,26.53
2018-05-06T03:29:33.458Z,26.53
2018-05-06T03:30:33.750Z,26.45
2018-05-06T03:31:33.381Z,26.44
2018-05-06T03:32:33.421Z,26.45
2018-05-06T03:33:33.342Z,26.32
2018-05-06T03:34:33.671Z,26.41
2018-05-06T03:35:33.266Z,26.35
2018-05-06T03:36:33.338Z,26.34
2018-05-06T03:37:33.205Z,26.35
2018-05-06T03:38:33.179Z,26.32
2018-05-06T03:39:33.388Z,26.17
2018-05-06T03:40:33.387Z,26.15
2018-05-06T03:41:33.500Z,26.16
2018-05-06T03:42:33.265Z,26.19
2018-05-06T03:43:33.366Z,26.19
2018-05-06T03:44:33.223Z,26.27
2018-05-06T03:45:33.609Z,26.24
2018-05-06T03:46:33.123Z,26.24
2018-05-06T03:47:33.370Z,26.27
2018-05-06T03:48:33.044Z,26.19
2018-05-06T03:49:32.909Z,26.32
2018-05-06T03:50:32.981Z,26.26
2018-05-06T03:51:33.012Z,26.23
2018-05-06T03:52:33.124Z,26.17
2018-05-06T03:53:32.945Z,26.22
2018-05-06T03:54:33.060Z,26.06
2018-05-06T03:55:32.809Z,26.16
2018-05-06T03:56:32.754Z,26.17
2018-05-06T03:57:32.814Z,26.06
2018-05-06T03:58:32.685Z,26.11
2018-05-06T03:59:32.658Z,26.12
2018-05-06T04:00:32.658Z,26.11
2018-05-06T04:01:32.618Z,26.09
2018-05-06T04:02:32.809Z,26.04
2018-05-06T04:03:32.566Z,26.12
2018-05-06T04:04:32.543Z,26.12
2018-05-06T04:05:32.502Z,26.07
2018-05-06T04:06:32.475Z,26.07
2018-05-06T04:07:32.429Z,26.15
2018-05-06T04:08:32.544Z,26.06
2018-05-06T04:09:32.383Z,26.15
2018-05-06T04:10:32.430Z,26.06
2018-05-06T04:11:32.728Z,26.07
2018-05-06T04:12:32.312Z,26.11
2018-05-06T04:13:32.382Z,26.16
2018-05-06T04:14:32.348Z,26.16
2018-05-06T04:15:32.244Z,26.07
2018-05-06T04:16:32.250Z,26.12
2018-05-06T04:17:32.170Z,26.15
2018-05-06T04:18:32.156Z,26.15
2018-05-06T04:19:32.350Z,26.17
2018-05-06T04:20:32.207Z,26.23
2018-05-06T04:21:32.126Z,26.23
2018-05-06T04:22:32.063Z,26.16
2018-05-06T04:23:32.022Z,26.16
2018-05-06T04:24:32.355Z,26.09
2018-05-06T04:25:32.080Z,26.16
2018-05-06T04:26:31.957Z,26.17
2018-05-06T04:27:31.951Z,26.20
2018-05-06T04:28:31.955Z,26.23
2018-05-06T04:29:31.901Z,26.12
2018-05-06T04:30:31.919Z,26.11
2018-05-06T04:31:31.869Z,26.11
2018-05-06T04:32:32.013Z,26.15
2018-05-06T04:33:31.973Z,26.12
2018-05-06T04:34:32.120Z,26.06
2018-05-06T04:35:32.013Z,26.07
2018-05-06T04:36:31.685Z,26.03
2018-05-06T04:37:31.732Z,26.03
2018-05-06T04:38:31.641Z,26.00
2018-05-06T04:39:31.714Z,25.97
2018-05-06T04:40:31.852Z,25.96
2018-05-06T04:41:31.585Z,26.03
2018-05-06T04:42:31.656Z,25.97
2018-05-06T04:43:31.508Z,25.97
2018-05-06T04:44:31.478Z,25.94
2018-05-06T04:45:31.480Z,25.88
2018-05-06T04:46:31.582Z,25.94
2018-05-06T04:47:31.425Z,25.93
2018-05-06T04:48:31.372Z,25.86
2018-05-06T04:49:31.340Z,25.93
2018-05-06T04:50:31.340Z,25.93
2018-05-06T04:51:31.313Z,25.88
2018-05-06T04:52:31.377Z,25.97
2018-05-06T04:53:31.239Z,25.86
2018-05-06T04:54:31.222Z,25.88
2018-05-06T04:55:31.245Z,25.85
2018-05-06T04:56:31.168Z,25.81
2018-05-06T04:57:31.847Z,25.79
2018-05-06T04:58:31.640Z,25.75
2018-05-06T04:59:31.181Z,25.74
2018-05-06T05:00:31.261Z,25.70
2018-05-06T05:01:31.161Z,25.81
2018-05-06T05:02:31.054Z,25.75
2018-05-06T05:03:31.096Z,25.71
2018-05-06T05:04:30.974Z,25.74
2018-05-06T05:05:30.932Z,25.67
2018-05-06T05:06:30.938Z,25.69
2018-05-06T05:07:30.884Z,25.69
2018-05-06T05:08:30.952Z,25.76
2018-05-06T05:09:30.853Z,25.74
2018-05-06T05:10:30.820Z,25.70
2018-05-06T05:11:30.891Z,25.69
2018-05-06T05:12:30.864Z,25.69
2018-05-06T05:13:30.805Z,25.70
2018-05-06T05:14:30.769Z,25.66
2018-05-06T05:15:30.706Z,25.64
2018-05-06T05:16:30.666Z,25.56
2018-05-06T05:17:30.624Z,25.54
2018-05-06T05:18:30.701Z,25.56
2018-05-06T05:19:30.580Z,25.64
2018-05-06T05:20:30.825Z,25.63
2018-05-06T05:21:30.835Z,25.52
2018-05-06T05:22:30.492Z,25.62
2018-05-06T05:23:30.463Z,25.54
2018-05-06T05:24:30.620Z,25.57
2018-05-06T05:25:30.493Z,25.42
2018-05-06T05:26:30.467Z,25.44
2018-05-06T05:27:30.347Z,25.37
2018-05-06T05:28:30.343Z,25.33
2018-05-06T05:29:30.428Z,25.39
2018-05-06T05:30:30.392Z,25.27
2018-05-06T05:31:30.251Z,25.24
2018-05-06T05:32:30.244Z,25.24
2018-05-06T05:33:30.695Z,25.19
2018-05-06T05:34:30.751Z,25.12
2018-05-06T05:35:30.238Z,25.12
2018-05-06T05:36:30.147Z,25.09
2018-05-06T05:37:30.092Z,25.11
2018-05-06T05:38:30.076Z,25.08
2018-05-06T05:39:30.064Z,25.07
2018-05-06T05:40:31.408Z,25.05
2018-05-06T05:41:30.017Z,24.96
2018-05-06T05:42:29.960Z,24.97
2018-05-06T05:43:29.941Z,24.85
2018-05-06T05:44:29.948Z,24.93
2018-05-06T05:45:29.882Z,24.96
2018-05-06T05:46:29.991Z,24.93
2018-05-06T05:47:29.839Z,24.87
2018-05-06T05:48:29.801Z,24.90
2018-05-06T05:49:29.783Z,24.80
2018-05-06T05:50:29.774Z,24.83
2018-05-06T05:51:29.768Z,24.78
2018-05-06T05:52:29.765Z,24.82
2018-05-06T05:53:29.668Z,24.83
2018-05-06T05:54:30.239Z,24.82
2018-05-06T05:55:29.660Z,24.85
2018-05-06T05:56:29.619Z,24.80
2018-05-06T05:57:29.700Z,24.86
2018-05-06T05:58:29.661Z,24.75
2018-05-06T05:59:29.536Z,24.74
2018-05-06T06:00:29.501Z,24.69
2018-05-06T06:01:29.536Z,24.59
2018-05-06T06:02:29.475Z,24.67
2018-05-06T06:03:29.573Z,24.71
2018-05-06T06:04:29.393Z,24.70
2018-05-06T06:05:29.423Z,24.67
2018-05-06T06:06:29.306Z,24.71
2018-05-06T06:07:29.306Z,24.69
2018-05-06T06:08:29.538Z,24.69
2018-05-06T06:09:29.291Z,24.74
2018-05-06T06:10:29.208Z,24.71
2018-05-06T06:11:29.214Z,24.71
2018-05-06T06:12:29.165Z,24.71
2018-05-06T06:13:29.393Z,24.70
2018-05-06T06:14:29.113Z,24.78
2018-05-06T06:15:29.093Z,24.77
2018-05-06T06:16:29.057Z,24.75
2018-05-06T06:17:29.048Z,24.74
2018-05-06T06:18:29.105Z,24.64
2018-05-06T06:19:28.995Z,24.64
2018-05-06T06:20:28.956Z,24.69
2018-05-06T06:21:28.919Z,24.59
2018-05-06T06:22:29.020Z,24.61
2018-05-06T06:23:28.970Z,24.59
2018-05-06T06:24:28.937Z,24.55
2018-05-06T06:25:28.830Z,24.54
2018-05-06T06:26:28.868Z,24.52
2018-05-06T06:27:28.942Z,24.51
2018-05-06T06:28:28.859Z,24.66
2018-05-06T06:29:28.772Z,24.63
2018-05-06T06:30:28.742Z,24.63
2018-05-06T06:31:28.688Z,24.52
2018-05-06T06:32:28.669Z,24.59
2018-05-06T06:33:28.806Z,24.66
2018-05-06T06:34:28.669Z,24.59
2018-05-06T06:35:28.557Z,24.52
2018-05-06T06:36:28.530Z,24.49
2018-05-06T06:37:28.505Z,24.51
2018-05-06T06:38:28.571Z,24.54
2018-05-06T06:39:28.452Z,24.49
2018-05-06T06:40:28.540Z,24.54
2018-05-06T06:41:28.386Z,24.48
2018-05-06T06:42:28.382Z,24.49
2018-05-06T06:43:28.352Z,24.49
2018-05-06T06:44:28.333Z,24.45
2018-05-06T06:45:28.332Z,24.45
2018-05-06T06:46:28.248Z,24.45
2018-05-06T06:47:28.256Z,24.42
2018-05-06T06:48:28.349Z,24.37
2018-05-06T06:49:28.166Z,24.39
2018-05-06T06:50:28.256Z,24.37
2018-05-06T06:51:28.153Z,24.46
2018-05-06T06:52:28.113Z,24.44
2018-05-06T06:53:28.073Z,24.49
2018-05-06T06:54:28.050Z,24.51
2018-05-06T06:55:28.121Z,24.42
2018-05-06T06:56:28.068Z,24.44
2018-05-06T06:57:27.976Z,24.44
2018-05-06T06:58:27.940Z,24.34
2018-05-06T06:59:27.905Z,24.39
2018-05-06T07:00:28.272Z,24.40
2018-05-06T07:01:27.849Z,24.36
2018-05-06T07:02:27.846Z,24.33
2018-05-06T07:03:28.199Z,24.34
2018-05-06T07:04:27.775Z,24.34
2018-05-06T07:05:27.883Z,24.36
2018-05-06T07:06:27.736Z,24.37
2018-05-06T07:07:27.700Z,24.39
2018-05-06T07:08:27.662Z,24.36
2018-05-06T07:09:27.668Z,24.36
2018-05-06T07:10:27.628Z,24.36
2018-05-06T07:11:27.681Z,24.44
2018-05-06T07:12:27.637Z,24.37
2018-05-06T07:13:27.534Z,24.36
2018-05-06T07:14:27.509Z,24.32
2018-05-06T07:15:27.492Z,24.37
2018-05-06T07:16:27.465Z,24.37
2018-05-06T07:17:27.528Z,24.37
2018-05-06T07:18:27.519Z,24.39
2018-05-06T07:19:27.497Z,24.32
2018-05-06T07:20:27.334Z,24.19
2018-05-06T07:21:27.315Z,24.22
2018-05-06T07:22:27.284Z,24.24
2018-05-06T07:23:27.379Z,24.26
2018-05-06T07:24:27.241Z,24.19
2018-05-06T07:25:27.341Z,24.24
2018-05-06T07:26:27.191Z,24.19
2018-05-06T07:27:27.199Z,24.22
2018-05-06T07:28:27.232Z,24.30
2018-05-06T07:29:27.096Z,24.34
2018-05-06T07:30:27.092Z,24.19
2018-05-06T07:31:27.061Z,24.21
2018-05-06T07:32:27.040Z,24.24
2018-05-06T07:33:27.282Z,24.21
2018-05-06T07:34:26.962Z,24.26
2018-05-06T07:35:26.947Z,24.24
2018-05-06T07:36:26.979Z,24.22
2018-05-06T07:37:26.877Z,24.32
2018-05-06T07:38:26.951Z,24.26
2018-05-06T07:39:27.028Z,24.32
2018-05-06T07:40:26.825Z,24.24
2018-05-06T07:41:26.773Z,24.22
2018-05-06T07:42:26.766Z,24.24
2018-05-06T07:43:26.784Z,24.26
2018-05-06T07:44:26.805Z,24.26
2018-05-06T07:45:26.658Z,24.22
2018-05-06T07:46:26.780Z,24.22
2018-05-06T07:47:26.636Z,24.21
2018-05-06T07:48:26.596Z,24.18
2018-05-06T07:49:26.655Z,24.21
2018-05-06T07:50:26.540Z,24.24
2018-05-06T07:51:26.516Z,24.24
2018-05-06T07:52:26.479Z,24.27
2018-05-06T07:53:26.474Z,24.22
2018-05-06T07:54:26.443Z,24.26
2018-05-06T07:55:26.548Z,24.29
2018-05-06T07:56:26.379Z,24.32
2018-05-06T07:57:26.349Z,24.37
2018-05-06T07:58:26.335Z,24.29
2018-05-06T07:59:26.320Z,24.32
2018-05-06T08:00:26.273Z,24.29
2018-05-06T08:01:26.341Z,24.33
2018-05-06T08:02:26.220Z,24.30
2018-05-06T08:03:26.195Z,24.33
2018-05-06T08:04:26.204Z,24.33
2018-05-06T08:05:26.204Z,24.37
2018-05-06T08:06:26.390Z,24.30
2018-05-06T08:07:26.091Z,24.22
2018-05-06T08:08:26.051Z,24.26
2018-05-06T08:09:26.041Z,24.19
2018-05-06T08:10:26.012Z,24.32
2018-05-06T08:11:26.072Z,24.29
2018-05-06T08:12:25.959Z,24.19
2018-05-06T08:13:25.943Z,24.34
2018-05-06T08:14:25.876Z,24.42
2018-05-06T08:15:25.857Z,24.44
2018-05-06T08:16:25.998Z,24.44
2018-05-06T08:17:25.904Z,24.37
2018-05-06T08:18:25.783Z,24.37
2018-05-06T08:19:25.754Z,24.34
2018-05-06T08:20:25.719Z,24.32
2018-05-06T08:21:25.688Z,24.33
2018-05-06T08:22:25.681Z,24.30
2018-05-06T08:23:25.754Z,24.39
2018-05-06T08:24:25.609Z,24.40
2018-05-06T08:25:25.580Z,24.36
2018-05-06T08:26:25.575Z,24.34
2018-05-06T08:27:25.583Z,24.39
2018-05-06T08:28:25.626Z,24.36
2018-05-06T08:29:25.480Z,24.39
2018-05-06T08:30:25.456Z,24.32
2018-05-06T08:31:25.430Z,24.30
2018-05-06T08:32:25.391Z,24.21
2018-05-06T08:33:25.387Z,24.33
2018-05-06T08:34:25.465Z,24.19
2018-05-06T08:35:25.313Z,24.36
2018-05-06T08:36:25.292Z,24.33
2018-05-06T08:37:25.267Z,24.44
2018-05-06T08:38:25.234Z,24.48
2018-05-06T08:39:25.318Z,24.44
2018-05-06T08:40:25.191Z,24.45
2018-05-06T08:41:25.155Z,24.45
2018-05-06T08:42:25.148Z,24.52
2018-05-06T08:43:25.094Z,24.52
2018-05-06T08:44:25.181Z,24.58
2018-05-06T08:45:25.044Z,24.46
2018-05-06T08:46:25.020Z,24.49
2018-05-06T08:47:25.017Z,24.46
2018-05-06T08:48:24.988Z,24.49
2018-05-06T08:49:25.040Z,24.42
2018-05-06T08:50:24.929Z,24.48
2018-05-06T08:51:24.891Z,24.39
2018-05-06T08:52:24.862Z,24.49
2018-05-06T08:53:24.851Z,24.49
2018-05-06T08:54:24.918Z,24.44
2018-05-06T08:55:24.881Z,24.48
2018-05-06T08:56:24.746Z,24.44
2018-05-06T08:57:24.735Z,24.48
2018-05-06T08:58:24.703Z,24.42
2018-05-06T08:59:24.667Z,24.34
2018-05-06T09:00:24.752Z,24.36
2018-05-06T09:01:24.606Z,24.34
2018-05-06T09:02:24.603Z,24.34
2018-05-06T09:03:24.559Z,24.36
2018-05-06T09:04:24.552Z,24.24
2018-05-06T09:05:24.555Z,24.24
2018-05-06T09:06:24.479Z,24.24
2018-05-06T09:07:24.456Z,24.24
2018-05-06T09:08:24.429Z,24.24
2018-05-06T09:09:24.390Z,24.22
2018-05-06T09:10:24.380Z,24.24
2018-05-06T09:11:24.395Z,24.22
2018-05-06T09:12:24.311Z,24.26
2018-05-06T09:13:24.307Z,24.19
2018-05-06T09:14:24.276Z,24.24
2018-05-06T09:15:24.243Z,24.26
2018-05-06T09:16:24.302Z,24.12
2018-05-06T09:17:24.203Z,24.08
2018-05-06T09:18:24.161Z,24.15
2018-05-06T09:19:24.136Z,24.26
2018-05-06T09:20:24.098Z,24.21
2018-05-06T09:21:24.178Z,24.21
2018-05-06T09:22:24.052Z,24.22
2018-05-06T09:23:24.029Z,24.24
2018-05-06T09:24:23.993Z,24.24
2018-05-06T09:25:24.013Z,24.24
2018-05-06T09:26:23.959Z,24.22
2018-05-06T09:27:24.008Z,24.14
2018-05-06T09:28:23.896Z,24.26
2018-05-06T09:29:23.869Z,24.09
2018-05-06T09:30:23.877Z,24.21
2018-05-06T09:31:23.821Z,24.18
2018-05-06T09:32:23.869Z,24.18
2018-05-06T09:33:23.755Z,24.21
2018-05-06T09:34:23.722Z,24.15
2018-05-06T09:35:23.690Z,24.09
2018-05-06T09:36:23.665Z,24.12
2018-05-06T09:37:23.721Z,24.08
2018-05-06T09:38:23.611Z,24.12
2018-05-06T09:39:23.592Z,24.07
2018-05-06T09:40:23.546Z,24.08
2018-05-06T09:41:23.542Z,24.11
2018-05-06T09:42:23.602Z,24.14
2018-05-06T09:43:23.467Z,24.11
2018-05-06T09:44:23.449Z,24.03
2018-05-06T09:45:23.442Z,24.09
2018-05-06T09:46:23.416Z,24.11
2018-05-06T09:47:23.357Z,24.09
2018-05-06T09:48:23.444Z,24.07
2018-05-06T09:49:23.314Z,24.03
2018-05-06T09:50:23.310Z,24.04
2018-05-06T09:51:23.273Z,24.04
2018-05-06T09:52:23.231Z,24.00
2018-05-06T09:53:23.321Z,24.03
2018-05-06T09:54:23.169Z,24.08
2018-05-06T09:55:23.146Z,23.97
2018-05-06T09:56:23.110Z,24.08
2018-05-06T09:57:23.108Z,24.08
2018-05-06T09:58:23.071Z,24.09
2018-05-06T09:59:23.167Z,24.11
2018-05-06T10:00:23.023Z,24.09
2018-05-06T10:01:22.988Z,24.04
2018-05-06T10:02:22.976Z,24.08
2018-05-06T10:03:22.931Z,24.09
2018-05-06T10:04:23.025Z,24.04
2018-05-06T10:05:22.917Z,24.03
2018-05-06T10:06:22.852Z,24.09
2018-05-06T10:07:22.831Z,23.90
2018-05-06T10:08:22.843Z,23.99
2018-05-06T10:09:22.864Z,23.97
2018-05-06T10:10:22.739Z,24.08
2018-05-06T10:11:22.710Z,24.02
2018-05-06T10:12:22.692Z,24.04
2018-05-06T10:13:22.669Z,24.12
2018-05-06T10:14:22.740Z,24.17
2018-05-06T10:15:22.611Z,24.24
2018-05-06T10:16:22.594Z,24.27
2018-05-06T10:17:22.598Z,24.24
2018-05-06T10:18:22.518Z,24.15
2018-05-06T10:19:22.551Z,24.26
2018-05-06T10:20:22.499Z,24.21
2018-05-06T10:21:22.442Z,24.22
2018-05-06T10:22:22.459Z,24.19
2018-05-06T10:23:22.393Z,24.17
2018-05-06T10:24:22.379Z,24.19
2018-05-06T10:25:22.409Z,24.19
2018-05-06T10:26:22.297Z,24.34
2018-05-06T10:27:22.275Z,24.32
2018-05-06T10:28:22.269Z,24.42
2018-05-06T10:29:22.228Z,24.37
2018-05-06T10:30:22.277Z,24.37
2018-05-06T10:33:19.815Z,24.42
2018-05-06T10:34:19.718Z,24.37
2018-05-06T10:35:19.693Z,24.37
2018-05-06T10:36:19.704Z,24.39
2018-05-06T10:37:19.628Z,24.51
2018-05-06T10:38:19.646Z,24.42
2018-05-06T10:39:19.593Z,24.36
2018-05-06T10:40:19.559Z,24.44
2018-05-06T10:41:19.637Z,24.37
2018-05-06T10:42:19.577Z,24.36
2018-05-06T10:43:19.478Z,24.49
2018-05-06T10:44:19.553Z,24.46
2018-05-06T10:45:19.412Z,24.51
2018-05-06T10:46:19.388Z,24.55
2018-05-06T10:47:19.451Z,24.45
2018-05-06T10:48:19.341Z,24.56
2018-05-06T10:49:19.592Z,24.55
2018-05-06T10:50:19.301Z,24.52
2018-05-06T10:51:19.250Z,24.49
2018-05-06T10:52:19.231Z,24.49
2018-05-06T10:53:19.296Z,24.45
2018-05-06T10:54:19.177Z,24.52
2018-05-06T10:55:19.134Z,24.46
2018-05-06T10:56:19.120Z,24.48
2018-05-06T10:57:19.107Z,24.58
2018-05-06T10:58:19.087Z,24.56
2018-05-06T10:59:19.137Z,24.59
2018-05-06T11:00:19.030Z,24.58
2018-05-06T11:01:18.977Z,24.58
2018-05-06T11:02:18.953Z,24.69
2018-05-06T11:03:18.926Z,24.59
2018-05-06T11:04:19.005Z,24.64
2018-05-06T11:05:18.883Z,24.63
2018-05-06T11:06:18.890Z,24.63
2018-05-06T11:07:18.825Z,24.51
2018-05-06T11:08:18.804Z,24.48
2018-05-06T11:09:18.863Z,24.55
2018-05-06T11:10:18.838Z,24.58
2018-05-06T11:11:18.714Z,24.51
2018-05-06T11:12:18.705Z,24.54
2018-05-06T11:13:18.655Z,24.46
2018-05-06T11:14:18.729Z,24.52
2018-05-06T11:15:18.600Z,24.51
2018-05-06T11:16:18.569Z,24.52
2018-05-06T11:17:18.556Z,24.51
2018-05-06T11:18:18.519Z,24.56
2018-05-06T11:19:18.507Z,24.66
2018-05-06T11:20:18.526Z,24.63
2018-05-06T11:21:18.434Z,24.49
2018-05-06T11:22:18.420Z,24.51
2018-05-06T11:23:18.386Z,24.63
2018-05-06T11:24:18.361Z,24.48
2018-05-06T11:25:18.336Z,24.61
2018-05-06T11:26:18.393Z,24.64
2018-05-06T11:27:18.298Z,24.59
2018-05-06T11:28:18.258Z,24.67
2018-05-06T11:29:18.237Z,24.64
2018-05-06T11:30:18.193Z,24.58
2018-05-06T11:31:18.244Z,24.64
2018-05-06T11:32:18.232Z,24.64
2018-05-06T11:33:18.186Z,24.66
2018-05-06T11:34:18.085Z,24.64
2018-05-06T11:35:18.055Z,24.63
2018-05-06T11:36:18.062Z,24.64
2018-05-06T11:37:18.111Z,24.64
2018-05-06T11:38:17.990Z,24.66
2018-05-06T11:39:17.961Z,24.71
2018-05-06T11:40:17.932Z,24.71
2018-05-06T11:41:17.911Z,24.78
2018-05-06T11:42:17.966Z,24.74
2018-05-06T11:43:17.861Z,24.80
2018-05-06T11:44:17.806Z,24.77
2018-05-06T11:45:17.807Z,24.80
2018-05-06T11:46:17.781Z,24.85
2018-05-06T11:47:17.834Z,24.80
2018-05-06T11:48:17.696Z,24.80
2018-05-06T11:49:17.711Z,24.83
2018-05-06T11:50:17.647Z,24.75
2018-05-06T11:51:17.627Z,24.78
2018-05-06T11:52:17.654Z,24.92
2018-05-06T11:53:17.599Z,24.92
2018-05-06T11:54:17.547Z,24.92
2018-05-06T11:55:17.526Z,25.01
2018-05-06T11:56:17.563Z,25.05
2018-05-06T11:57:17.483Z,25.11
2018-05-06T11:58:17.561Z,25.08
2018-05-06T11:59:17.424Z,25.14
2018-05-06T12:00:17.380Z,25.22
2018-05-06T12:01:17.373Z,25.24
2018-05-06T12:02:17.374Z,25.29
2018-05-06T12:03:17.318Z,25.34
2018-05-06T12:04:17.390Z,25.27
2018-05-06T12:05:17.247Z,25.39
2018-05-06T12:06:17.228Z,25.48
2018-05-06T12:07:17.197Z,25.44
2018-05-06T12:08:17.167Z,25.49
2018-05-06T12:09:17.273Z,25.49
2018-05-06T12:10:17.135Z,25.59
2018-05-06T12:11:17.093Z,25.59
2018-05-06T12:12:17.076Z,25.60
2018-05-06T12:13:17.072Z,25.69
2018-05-06T12:14:17.121Z,25.70
2018-05-06T12:15:16.989Z,25.70
2018-05-06T12:16:16.968Z,25.74
2018-05-06T12:17:16.956Z,25.82
2018-05-06T12:18:16.920Z,25.86
2018-05-06T12:19:16.923Z,25.89
2018-05-06T12:20:16.845Z,25.99
2018-05-06T12:21:16.815Z,26.07
2018-05-06T12:22:16.807Z,25.97
2018-05-06T12:23:16.776Z,25.96
2018-05-06T12:24:16.851Z,26.06
2018-05-06T12:25:16.745Z,26.00
2018-05-06T12:26:16.685Z,26.04
2018-05-06T12:27:16.677Z,26.06
2018-05-06T12:28:16.680Z,26.11
2018-05-06T12:29:16.770Z,26.16
2018-05-06T12:30:16.584Z,26.20
2018-05-06T12:31:16.547Z,26.22
2018-05-06T12:32:16.542Z,26.15
2018-05-06T12:33:16.496Z,26.22
2018-05-06T12:34:16.490Z,26.32
2018-05-06T12:35:16.556Z,26.32
2018-05-06T12:36:16.505Z,26.34
2018-05-06T12:37:16.402Z,26.39
2018-05-06T12:38:16.419Z,26.52
2018-05-06T12:39:16.949Z,26.61
2018-05-06T12:40:16.900Z,26.69
2018-05-06T12:41:16.403Z,26.67
2018-05-06T12:42:16.293Z,26.75
2018-05-06T12:43:16.324Z,26.71
2018-05-06T12:44:16.222Z,26.72
2018-05-06T12:45:16.198Z,26.79
2018-05-06T12:46:16.282Z,26.79
2018-05-06T12:47:16.255Z,26.96
2018-05-06T12:48:16.157Z,27.08
2018-05-06T12:49:16.200Z,27.13
2018-05-06T12:50:16.077Z,27.30
2018-05-06T12:51:16.189Z,27.42
2018-05-06T12:52:16.019Z,27.68
2018-05-06T12:53:16.003Z,27.87
2018-05-06T12:54:15.992Z,28.02